Plymouth Light

42° 00' 12"N, 70° 36' 04"W, Elevation 54 ft.
Eastern Time

Hourly observations for the last 72 hours

Date Time Temperature (°F) Humi-
dity

(%)
Wind
(mph)
Pressure Rain (in) Sun
(W/m2)
ET
(in)
Air Dew 6 Hour 1 Hr 3 Hr 6 Hr Day
Alt
(in)
Sea
Level

(mb)
Max Min
21 09:00 64.2 55.4 73 S 7 G 15 30.27 1025.0 0.00 199 0.016
21 08:00 62.8 54.4 62.8 61.6 74 S 4 G 12 30.27 1025.2 0.00 160 0.013
21 07:00 62.3 53.5 73 SE 10 G 16 30.26 1024.9 0.00 26 0.010
21 06:00 62.0 51.7 69 ESE 8 G 13 30.26 1024.8 0.00 0 0.008
21 05:00 61.9 53.2 73 SSE 6 G 12 30.24 1024.2 0.00 0 0.006
21 04:00 61.7 53.3 74 ESE 9 G 14 30.25 1024.3 0.00 0 0.004
21 03:00 61.6 53.6 75 ESE 8 G 13 30.25 1024.5 0.00 0 0.002
21 02:00 61.8 55.2 62.2 61.6 79 E 7 G 13 30.26 1024.7 0.00 0 0.001
21 01:00 61.9 55.0 78 ESE 7 G 11 30.26 1024.9 0.00 0 0.000
21 00:00 61.9 55.7 80 SE 9 G 13 30.26 1024.7 0.08 0 0.095
20 23:00 61.8 55.6 80 ESE 8 G 13 30.26 1024.7 0.08 0 0.094
20 22:00 61.8 55.2 79 E 9 G 13 30.26 1024.8 0.08 0 0.093
20 21:00 62.0 55.4 79 E 6 G 13 30.26 1024.8 0.08 0 0.091
20 20:00 61.9 55.0 63.7 61.9 78 E 6 G 13 30.24 1023.9 0.08 0 0.089
20 19:00 62.1 55.9 80 E 12 G 15 30.24 1024.1 0.08 0 0.087
20 18:00 62.4 56.5 81 E 15 G 19 30.22 1023.3 0.08 37 0.084
20 17:00 62.6 56.7 81 ENE 10 G 18 30.22 1023.3 0.08 111 0.079
20 16:00 62.7 57.1 82 ENE 12 G 17 30.21 1023.1 0.08 236 0.071
20 15:00 63.0 58.7 86 NE 13 G 19 30.21 1023.0 0.08 330 0.061
20 14:00 63.3 59.0 63.3 59.9 86 NE 13 G 18 30.21 1023.1 0.08 0.08 445 0.050
20 13:00 62.9 59.0 87 NE 15 G 19 30.21 1023.0 0.08 517 0.040
20 12:00 63.0 59.1 87 NE 15 G 20 30.22 1023.3 0.08 571 0.029
20 11:00 62.7 59.4 89 ENE 17 G 21 30.21 1022.9 0.08 0.08 408 0.020
20 10:00 61.6 59.9 94 NE 16 G 21 30.19 1022.5 0.04 0.08 188 0.016
20 09:00 60.2 59.1 96 NNE 13 G 21 30.17 1021.6 0.04 0.04 97 0.013
20 08:00 61.6 58.9 62.5 61.0 91 NE 15 G 21 30.13 1020.5 0.00 128 0.011
20 07:00 61.7 59.4 92 NE 17 G 24 30.11 1019.5 0.00 12 0.010
20 06:00 61.8 59.5 92 NNE 15 G 25 30.09 1019.2 0.00 0 0.009
20 05:00 61.4 59.4 93 NE 17 G 24 30.08 1018.5 0.00 0 0.008
20 04:00 61.9 59.2 91 NE 17 G 26 30.07 1018.2 0.00 0 0.006
20 03:00 62.1 58.8 89 NE 17 G 25 30.06 1017.8 0.00 0 0.004
20 02:00 62.1 58.2 62.4 61.3 87 NE 20 G 26 30.05 1017.7 0.00 0 0.002
20 01:00 62.2 58.0 86 NE 20 G 28 30.06 1017.8 0.00 0 0.000
20 00:00 62.1 58.5 88 NE 17 G 24 30.03 1017.1 0.07 0 0.058
19 23:00 61.9 57.7 86 NE 19 G 26 30.03 1017.0 0.07 0 0.056
19 22:00 61.9 57.7 86 NE 17 G 23 30.03 1016.9 0.07 0 0.053
19 21:00 61.8 56.9 84 NE 21 G 30 30.03 1016.9 0.07 0 0.051
19 20:00 61.6 57.7 63.0 60.7 87 NE 17 G 24 30.01 1016.4 0.07 0 0.049
19 19:00 61.0 57.7 89 NE 15 G 22 30.00 1016.0 0.07 0 0.047
19 18:00 61.1 57.8 89 NE 16 G 23 29.97 1015.1 0.07 11 0.045
19 17:00 61.1 58.5 91 NE 17 G 22 29.94 1014.0 0.07 77 0.041
19 16:00 61.6 58.9 91 NE 15 G 20 29.93 1013.6 0.07 155 0.036
19 15:00 62.3 59.0 89 NE 16 G 23 29.92 1013.2 0.07 155 0.029
19 14:00 61.8 59.8 63.9 61.6 93 NE 17 G 23 29.92 1013.1 0.01 0.01 0.07 236 0.023
19 13:00 63.5 60.8 91 NE 13 G 21 29.92 1013.1 0.07 473 0.014
19 12:00 61.9 60.5 95 NE 16 G 24 29.91 1012.9 0.01 0.07 243 0.010
19 11:00 61.9 61.0 97 NE 18 G 23 29.90 1012.6 0.06 146 0.006
19 10:00 63.1 61.6 95 NE 17 G 25 29.88 1011.8 0.06 93 0.003
19 09:00 62.8 62.2 98 NE 18 G 25 29.85 1010.8 0.06 76 0.001
19 08:00 62.9 62.6 66.6 62.7 99 NE 20 G 28 29.82 1010.0 0.01 0.05 0.06 0.06 77 0.000
19 07:00 65.3 65.0 99 NNE 15 G 20 29.81 1009.4 0.04 0.05 7 0.000
19 06:00 66.3 66.0 99 NE 5 G 7 29.77 1008.3 0.01 0 0.000
19 05:00 66.0 65.7 99 NE 3 G 4 29.76 1007.7 0.01 0.01 0 0.000
19 04:00 66.4 66.1 99 SSE 2 G 4 29.74 1007.0 0.01 0 0.000
19 03:00 66.4 66.1 99 S 2 G 3 29.74 1007.3 0.01 0.01 0 0.000
19 02:00 66.1 65.8 67.0 65.5 99 SSE 2 G 7 29.73 1006.7 0.01 0.01 0.00 0 0.000
19 01:00 65.6 65.0 98 ESE 1 G 2 29.72 1006.4 0.00 0 0.000
19 00:00 66.5 66.2 99 NNW 0 G 3 29.72 1006.5 0.01 1.23 0 0.027
18 23:00 66.4 65.8 98 W 1 G 3 29.73 1006.8 1.22 0 0.027
18 22:00 65.9 65.3 98 SW 3 G 5 29.72 1006.6 1.22 0 0.027
18 21:00 66.8 66.2 98 W 1 G 3 29.72 1006.3 1.22 0 0.027
18 20:00 66.8 66.2 69.9 66.6 98 E 1 G 3 29.70 1005.8 0.01 1.02 1.22 0 0.027
18 19:00 66.8 66.2 98 SSE 0 G 2 29.70 1005.8 1.22 0 0.027
18 18:00 67.3 66.7 98 NNE 2 G 3 29.69 1005.5 0.01 1.22 42 0.026
18 17:00 67.4 66.8 98 N 3 G 6 29.70 1005.9 0.01 1.01 1.21 32 0.025
18 16:00 68.8 68.2 98 N 5 G 8 29.70 1005.9 0.06 1.20 14 0.025
18 15:00 69.7 68.8 97 NE 2 G 10 29.67 1004.7 0.94 1.14 11 0.025
18 14:00 69.9 68.7 75.1 69.8 96 NE 3 G 7 29.67 1004.7 0.05 0.06 0.19 0.20 12 0.024
18 13:00 74.0 72.5 95 W 9 G 17 29.68 1005.0 0.01 0.15 63 0.021
18 12:00 74.2 72.7 95 W 10 G 18 29.68 1005.0 0.14 139 0.018
18 11:00 73.5 72.0 95 SW 21 G 30 29.68 1005.2 0.12 0.13 0.14 137 0.013
18 10:00 74.0 71.8 93 SW 20 G 28 29.71 1006.2 0.02 183 0.008

Data generated by WxSolution Version 1.9.1.1, Build 2017.11.27.